sensor_id;sensor_type;location;lat;lon;timestamp;P1;durP1;ratioP1;P2;durP2;ratioP2
68310;SDS011;55157;51.036;17.058;2023-08-07T00:00:58;4.38;;;2.70;;
68310;SDS011;55157;51.036;17.058;2023-08-07T00:03:23;2.70;;;2.30;;
68310;SDS011;55157;51.036;17.058;2023-08-07T00:05:48;3.20;;;2.63;;
68310;SDS011;55157;51.036;17.058;2023-08-07T00:08:14;6.10;;;2.67;;
68310;SDS011;55157;51.036;17.058;2023-08-07T00:10:39;6.22;;;2.15;;
68310;SDS011;55157;51.036;17.058;2023-08-07T00:13:04;7.65;;;2.08;;
68310;SDS011;55157;51.036;17.058;2023-08-07T00:15:29;4.60;;;2.28;;
68310;SDS011;55157;51.036;17.058;2023-08-07T00:17:56;3.58;;;2.22;;
68310;SDS011;55157;51.036;17.058;2023-08-07T00:20:22;10.30;;;2.35;;
68310;SDS011;55157;51.036;17.058;2023-08-07T00:22:47;6.38;;;2.42;;
68310;SDS011;55157;51.036;17.058;2023-08-07T00:25:12;5.35;;;2.10;;
68310;SDS011;55157;51.036;17.058;2023-08-07T00:27:37;6.88;;;2.42;;
68310;SDS011;55157;51.036;17.058;2023-08-07T00:30:03;3.20;;;2.13;;
68310;SDS011;55157;51.036;17.058;2023-08-07T00:32:28;4.22;;;2.25;;
68310;SDS011;55157;51.036;17.058;2023-08-07T00:34:55;6.13;;;2.17;;
68310;SDS011;55157;51.036;17.058;2023-08-07T00:37:20;4.78;;;2.63;;
68310;SDS011;55157;51.036;17.058;2023-08-07T00:39:45;2.88;;;2.25;;
68310;SDS011;55157;51.036;17.058;2023-08-07T00:42:10;3.67;;;2.13;;
68310;SDS011;55157;51.036;17.058;2023-08-07T00:44:36;3.40;;;2.25;;
68310;SDS011;55157;51.036;17.058;2023-08-07T00:47:01;5.80;;;2.45;;
68310;SDS011;55157;51.036;17.058;2023-08-07T00:49:26;2.85;;;1.90;;
68310;SDS011;55157;51.036;17.058;2023-08-07T00:51:53;2.95;;;2.65;;
68310;SDS011;55157;51.036;17.058;2023-08-07T00:54:19;6.85;;;2.17;;
68310;SDS011;55157;51.036;17.058;2023-08-07T00:56:44;3.00;;;2.30;;
68310;SDS011;55157;51.036;17.058;2023-08-07T00:59:10;3.78;;;2.33;;
68310;SDS011;55157;51.036;17.058;2023-08-07T01:01:35;5.18;;;2.55;;
68310;SDS011;55157;51.036;17.058;2023-08-07T01:04:00;3.47;;;2.15;;
68310;SDS011;55157;51.036;17.058;2023-08-07T01:06:25;6.55;;;2.20;;
68310;SDS011;55157;51.036;17.058;2023-08-07T01:08:52;4.20;;;2.88;;
68310;SDS011;55157;51.036;17.058;2023-08-07T01:11:20;3.63;;;2.10;;
68310;SDS011;55157;51.036;17.058;2023-08-07T01:13:49;4.40;;;2.03;;
68310;SDS011;55157;51.036;17.058;2023-08-07T01:16:18;3.22;;;1.85;;
68310;SDS011;55157;51.036;17.058;2023-08-07T01:18:43;5.68;;;2.53;;
68310;SDS011;55157;51.036;17.058;2023-08-07T01:21:16;6.00;;;2.63;;
68310;SDS011;55157;51.036;17.058;2023-08-07T01:23:43;2.60;;;2.38;;
68310;SDS011;55157;51.036;17.058;2023-08-07T01:26:08;5.43;;;2.47;;
68310;SDS011;55157;51.036;17.058;2023-08-07T01:28:35;2.90;;;2.47;;
68310;SDS011;55157;51.036;17.058;2023-08-07T01:31:03;5.63;;;2.50;;
68310;SDS011;55157;51.036;17.058;2023-08-07T01:33:32;3.05;;;2.35;;
68310;SDS011;55157;51.036;17.058;2023-08-07T01:36:01;6.82;;;2.42;;
68310;SDS011;55157;51.036;17.058;2023-08-07T01:38:27;8.20;;;2.40;;
68310;SDS011;55157;51.036;17.058;2023-08-07T01:40:54;4.53;;;2.40;;
68310;SDS011;55157;51.036;17.058;2023-08-07T01:43:19;5.22;;;2.08;;
68310;SDS011;55157;51.036;17.058;2023-08-07T01:45:45;3.83;;;2.50;;
68310;SDS011;55157;51.036;17.058;2023-08-07T01:48:10;3.53;;;2.00;;
68310;SDS011;55157;51.036;17.058;2023-08-07T01:50:35;15.68;;;2.95;;
68310;SDS011;55157;51.036;17.058;2023-08-07T01:53:01;8.15;;;2.30;;
68310;SDS011;55157;51.036;17.058;2023-08-07T01:55:26;2.28;;;1.92;;
68310;SDS011;55157;51.036;17.058;2023-08-07T01:57:53;5.82;;;2.28;;
68310;SDS011;55157;51.036;17.058;2023-08-07T02:00:18;5.40;;;2.25;;
68310;SDS011;55157;51.036;17.058;2023-08-07T02:02:44;6.50;;;2.03;;
68310;SDS011;55157;51.036;17.058;2023-08-07T02:05:09;4.32;;;2.30;;
68310;SDS011;55157;51.036;17.058;2023-08-07T02:07:34;3.95;;;2.00;;
68310;SDS011;55157;51.036;17.058;2023-08-07T02:09:59;5.57;;;2.42;;
68310;SDS011;55157;51.036;17.058;2023-08-07T02:12:25;5.85;;;2.45;;
68310;SDS011;55157;51.036;17.058;2023-08-07T02:14:51;8.13;;;2.42;;
68310;SDS011;55157;51.036;17.058;2023-08-07T02:17:17;2.88;;;2.25;;
68310;SDS011;55157;51.036;17.058;2023-08-07T02:19:42;4.57;;;2.45;;
68310;SDS011;55157;51.036;17.058;2023-08-07T02:22:07;9.25;;;2.35;;
68310;SDS011;55157;51.036;17.058;2023-08-07T02:24:32;4.30;;;2.40;;
68310;SDS011;55157;51.036;17.058;2023-08-07T02:26:58;3.75;;;2.42;;
68310;SDS011;55157;51.036;17.058;2023-08-07T02:29:23;3.67;;;2.47;;
68310;SDS011;55157;51.036;17.058;2023-08-07T02:31:50;4.03;;;2.70;;
68310;SDS011;55157;51.036;17.058;2023-08-07T02:34:15;5.40;;;3.30;;
68310;SDS011;55157;51.036;17.058;2023-08-07T02:36:40;4.18;;;2.60;;
68310;SDS011;55157;51.036;17.058;2023-08-07T02:39:07;4.45;;;2.67;;
68310;SDS011;55157;51.036;17.058;2023-08-07T02:41:32;10.20;;;2.53;;
68310;SDS011;55157;51.036;17.058;2023-08-07T02:43:57;7.32;;;2.95;;
68310;SDS011;55157;51.036;17.058;2023-08-07T02:46:23;4.63;;;2.75;;
68310;SDS011;55157;51.036;17.058;2023-08-07T02:48:49;4.18;;;2.65;;
68310;SDS011;55157;51.036;17.058;2023-08-07T02:51:15;4.95;;;2.70;;
68310;SDS011;55157;51.036;17.058;2023-08-07T02:53:40;5.05;;;3.08;;
68310;SDS011;55157;51.036;17.058;2023-08-07T02:56:05;3.85;;;2.92;;
68310;SDS011;55157;51.036;17.058;2023-08-07T02:58:30;11.00;;;2.85;;
68310;SDS011;55157;51.036;17.058;2023-08-07T03:00:56;3.97;;;3.10;;
68310;SDS011;55157;51.036;17.058;2023-08-07T03:03:21;7.63;;;2.50;;
68310;SDS011;55157;51.036;17.058;2023-08-07T03:05:50;6.45;;;4.38;;
68310;SDS011;55157;51.036;17.058;2023-08-07T03:08:16;3.35;;;3.05;;
68310;SDS011;55157;51.036;17.058;2023-08-07T03:10:41;7.60;;;3.13;;
68310;SDS011;55157;51.036;17.058;2023-08-07T03:13:06;6.35;;;3.00;;
68310;SDS011;55157;51.036;17.058;2023-08-07T03:15:32;3.90;;;3.40;;
68310;SDS011;55157;51.036;17.058;2023-08-07T03:17:57;3.28;;;2.70;;
68310;SDS011;55157;51.036;17.058;2023-08-07T03:20:22;4.78;;;3.00;;
68310;SDS011;55157;51.036;17.058;2023-08-07T03:22:49;4.45;;;3.17;;
68310;SDS011;55157;51.036;17.058;2023-08-07T03:25:14;3.92;;;3.38;;
68310;SDS011;55157;51.036;17.058;2023-08-07T03:27:39;4.68;;;3.17;;
68310;SDS011;55157;51.036;17.058;2023-08-07T03:30:05;4.88;;;3.55;;
68310;SDS011;55157;51.036;17.058;2023-08-07T03:32:30;6.72;;;3.53;;
68310;SDS011;55157;51.036;17.058;2023-08-07T03:34:56;6.78;;;3.20;;
68310;SDS011;55157;51.036;17.058;2023-08-07T03:37:21;6.05;;;3.65;;
68310;SDS011;55157;51.036;17.058;2023-08-07T03:39:48;4.00;;;3.60;;
68310;SDS011;55157;51.036;17.058;2023-08-07T03:42:13;4.30;;;3.78;;
68310;SDS011;55157;51.036;17.058;2023-08-07T03:44:38;4.65;;;4.00;;
68310;SDS011;55157;51.036;17.058;2023-08-07T03:47:03;8.93;;;4.30;;
68310;SDS011;55157;51.036;17.058;2023-08-07T03:49:29;6.95;;;3.90;;
68310;SDS011;55157;51.036;17.058;2023-08-07T03:51:54;12.38;;;4.40;;
68310;SDS011;55157;51.036;17.058;2023-08-07T03:54:19;5.68;;;3.90;;
68310;SDS011;55157;51.036;17.058;2023-08-07T03:56:46;6.10;;;3.63;;
68310;SDS011;55157;51.036;17.058;2023-08-07T03:59:11;7.50;;;3.95;;
68310;SDS011;55157;51.036;17.058;2023-08-07T04:01:36;5.95;;;3.83;;
68310;SDS011;55157;51.036;17.058;2023-08-07T04:04:02;6.90;;;3.65;;
68310;SDS011;55157;51.036;17.058;2023-08-07T04:06:27;6.43;;;3.80;;
68310;SDS011;55157;51.036;17.058;2023-08-07T04:08:52;5.93;;;3.67;;
68310;SDS011;55157;51.036;17.058;2023-08-07T04:11:17;4.53;;;3.60;;
68310;SDS011;55157;51.036;17.058;2023-08-07T04:13:44;4.28;;;3.60;;
68310;SDS011;55157;51.036;17.058;2023-08-07T04:16:09;7.03;;;3.60;;
68310;SDS011;55157;51.036;17.058;2023-08-07T04:18:35;6.13;;;3.72;;
68310;SDS011;55157;51.036;17.058;2023-08-07T04:21:00;6.90;;;3.80;;
68310;SDS011;55157;51.036;17.058;2023-08-07T04:23:25;4.13;;;3.63;;
68310;SDS011;55157;51.036;17.058;2023-08-07T04:25:51;7.28;;;3.90;;
68310;SDS011;55157;51.036;17.058;2023-08-07T04:28:17;4.30;;;3.25;;
68310;SDS011;55157;51.036;17.058;2023-08-07T04:30:44;5.50;;;3.65;;
68310;SDS011;55157;51.036;17.058;2023-08-07T04:33:09;5.00;;;3.65;;
68310;SDS011;55157;51.036;17.058;2023-08-07T04:35:35;6.75;;;3.70;;
68310;SDS011;55157;51.036;17.058;2023-08-07T04:38:00;16.48;;;4.60;;
68310;SDS011;55157;51.036;17.058;2023-08-07T04:40:26;8.55;;;4.63;;
68310;SDS011;55157;51.036;17.058;2023-08-07T04:42:51;4.28;;;3.58;;
68310;SDS011;55157;51.036;17.058;2023-08-07T04:45:16;5.40;;;4.13;;
68310;SDS011;55157;51.036;17.058;2023-08-07T04:47:43;4.95;;;3.55;;
68310;SDS011;55157;51.036;17.058;2023-08-07T04:50:09;3.72;;;3.25;;
68310;SDS011;55157;51.036;17.058;2023-08-07T04:52:34;5.72;;;3.80;;
68310;SDS011;55157;51.036;17.058;2023-08-07T04:54:59;4.85;;;3.40;;
68310;SDS011;55157;51.036;17.058;2023-08-07T04:57:24;4.85;;;3.60;;
68310;SDS011;55157;51.036;17.058;2023-08-07T04:59:50;4.97;;;3.35;;
68310;SDS011;55157;51.036;17.058;2023-08-07T05:02:15;5.47;;;2.97;;
68310;SDS011;55157;51.036;17.058;2023-08-07T05:04:42;5.25;;;3.10;;
68310;SDS011;55157;51.036;17.058;2023-08-07T05:07:07;5.57;;;3.10;;
68310;SDS011;55157;51.036;17.058;2023-08-07T05:09:32;3.20;;;2.90;;
68310;SDS011;55157;51.036;17.058;2023-08-07T05:11:57;3.25;;;2.95;;
68310;SDS011;55157;51.036;17.058;2023-08-07T05:14:23;3.60;;;2.78;;
68310;SDS011;55157;51.036;17.058;2023-08-07T05:16:48;4.22;;;2.97;;
68310;SDS011;55157;51.036;17.058;2023-08-07T05:19:13;7.18;;;3.15;;
68310;SDS011;55157;51.036;17.058;2023-08-07T05:21:40;5.38;;;3.25;;
68310;SDS011;55157;51.036;17.058;2023-08-07T05:24:05;3.90;;;3.50;;
68310;SDS011;55157;51.036;17.058;2023-08-07T05:26:30;5.10;;;3.40;;
68310;SDS011;55157;51.036;17.058;2023-08-07T05:28:55;3.50;;;3.08;;
68310;SDS011;55157;51.036;17.058;2023-08-07T05:31:21;5.47;;;3.78;;
68310;SDS011;55157;51.036;17.058;2023-08-07T05:33:46;6.65;;;2.70;;
68310;SDS011;55157;51.036;17.058;2023-08-07T05:41:23;6.47;;;2.72;;
68310;SDS011;55157;51.036;17.058;2023-08-07T05:43:48;2.50;;;2.05;;
68310;SDS011;55157;51.036;17.058;2023-08-07T05:46:13;4.30;;;2.80;;
68310;SDS011;55157;51.036;17.058;2023-08-07T05:48:38;3.22;;;2.60;;
68310;SDS011;55157;51.036;17.058;2023-08-07T05:51:04;3.88;;;2.50;;
68310;SDS011;55157;51.036;17.058;2023-08-07T05:53:29;7.32;;;2.85;;
68310;SDS011;55157;51.036;17.058;2023-08-07T05:55:54;3.88;;;2.80;;
68310;SDS011;55157;51.036;17.058;2023-08-07T05:58:21;3.45;;;2.20;;
68310;SDS011;55157;51.036;17.058;2023-08-07T06:00:46;2.70;;;2.00;;
68310;SDS011;55157;51.036;17.058;2023-08-07T06:03:12;2.10;;;1.90;;
68310;SDS011;55157;51.036;17.058;2023-08-07T06:05:37;3.58;;;2.00;;
68310;SDS011;55157;51.036;17.058;2023-08-07T06:08:02;3.80;;;2.42;;
68310;SDS011;55157;51.036;17.058;2023-08-07T06:10:27;4.82;;;2.08;;
68310;SDS011;55157;51.036;17.058;2023-08-07T06:12:53;2.20;;;2.00;;
68310;SDS011;55157;51.036;17.058;2023-08-07T06:15:20;4.93;;;1.85;;
68310;SDS011;55157;51.036;17.058;2023-08-07T06:17:45;3.70;;;1.80;;
68310;SDS011;55157;51.036;17.058;2023-08-07T06:20:10;4.60;;;2.10;;
68310;SDS011;55157;51.036;17.058;2023-08-07T06:22:36;6.07;;;2.70;;
68310;SDS011;55157;51.036;17.058;2023-08-07T06:25:01;2.72;;;2.00;;
68310;SDS011;55157;51.036;17.058;2023-08-07T06:27:26;3.03;;;1.95;;
68310;SDS011;55157;51.036;17.058;2023-08-07T06:29:51;7.53;;;2.72;;
68310;SDS011;55157;51.036;17.058;2023-08-07T06:32:18;6.55;;;3.55;;
68310;SDS011;55157;51.036;17.058;2023-08-07T06:34:43;4.72;;;2.40;;
68310;SDS011;55157;51.036;17.058;2023-08-07T06:37:08;8.82;;;2.55;;
68310;SDS011;55157;51.036;17.058;2023-08-07T06:39:34;40.67;;;5.72;;
68310;SDS011;55157;51.036;17.058;2023-08-07T06:41:59;13.10;;;3.72;;
68310;SDS011;55157;51.036;17.058;2023-08-07T06:44:24;5.35;;;2.60;;
68310;SDS011;55157;51.036;17.058;2023-08-07T06:46:49;3.38;;;2.40;;
68310;SDS011;55157;51.036;17.058;2023-08-07T06:49:16;6.68;;;2.28;;
68310;SDS011;55157;51.036;17.058;2023-08-07T06:51:41;3.03;;;2.15;;
68310;SDS011;55157;51.036;17.058;2023-08-07T06:54:07;3.28;;;2.03;;
68310;SDS011;55157;51.036;17.058;2023-08-07T06:56:32;2.47;;;2.10;;
68310;SDS011;55157;51.036;17.058;2023-08-07T06:58:57;4.85;;;2.10;;
68310;SDS011;55157;51.036;17.058;2023-08-07T07:01:22;4.72;;;2.30;;
68310;SDS011;55157;51.036;17.058;2023-08-07T07:03:47;2.17;;;1.73;;
68310;SDS011;55157;51.036;17.058;2023-08-07T07:06:14;4.25;;;2.47;;
68310;SDS011;55157;51.036;17.058;2023-08-07T07:08:39;5.53;;;2.40;;
68310;SDS011;55157;51.036;17.058;2023-08-07T07:11:05;3.80;;;1.65;;
68310;SDS011;55157;51.036;17.058;2023-08-07T07:13:30;4.00;;;1.63;;
68310;SDS011;55157;51.036;17.058;2023-08-07T07:15:55;3.60;;;2.17;;
68310;SDS011;55157;51.036;17.058;2023-08-07T07:18:20;2.33;;;1.35;;
68310;SDS011;55157;51.036;17.058;2023-08-07T07:20:46;2.30;;;1.55;;
68310;SDS011;55157;51.036;17.058;2023-08-07T07:23:12;2.83;;;1.90;;
68310;SDS011;55157;51.036;17.058;2023-08-07T07:25:37;16.20;;;2.47;;
68310;SDS011;55157;51.036;17.058;2023-08-07T07:28:03;14.68;;;2.70;;
68310;SDS011;55157;51.036;17.058;2023-08-07T07:30:28;2.53;;;1.50;;
68310;SDS011;55157;51.036;17.058;2023-08-07T07:32:53;3.70;;;1.92;;
68310;SDS011;55157;51.036;17.058;2023-08-07T07:35:19;4.63;;;1.75;;
68310;SDS011;55157;51.036;17.058;2023-08-07T07:37:44;4.88;;;1.95;;
68310;SDS011;55157;51.036;17.058;2023-08-07T07:40:11;2.72;;;1.65;;
68310;SDS011;55157;51.036;17.058;2023-08-07T07:42:36;5.00;;;2.70;;
68310;SDS011;55157;51.036;17.058;2023-08-07T07:45:02;3.55;;;1.88;;
68310;SDS011;55157;51.036;17.058;2023-08-07T07:47:27;2.42;;;1.83;;
68310;SDS011;55157;51.036;17.058;2023-08-07T07:50:04;4.80;;;1.77;;
68310;SDS011;55157;51.036;17.058;2023-08-07T07:52:29;3.72;;;1.75;;
68310;SDS011;55157;51.036;17.058;2023-08-07T07:54:54;2.47;;;1.80;;
68310;SDS011;55157;51.036;17.058;2023-08-07T07:57:21;2.30;;;1.50;;
68310;SDS011;55157;51.036;17.058;2023-08-07T07:59:46;3.85;;;1.77;;
68310;SDS011;55157;51.036;17.058;2023-08-07T08:02:12;2.47;;;1.67;;
68310;SDS011;55157;51.036;17.058;2023-08-07T08:04:37;4.15;;;1.98;;
68310;SDS011;55157;51.036;17.058;2023-08-07T08:07:02;2.72;;;1.88;;
68310;SDS011;55157;51.036;17.058;2023-08-07T08:09:28;5.20;;;2.13;;
68310;SDS011;55157;51.036;17.058;2023-08-07T08:11:53;5.20;;;1.52;;
68310;SDS011;55157;51.036;17.058;2023-08-07T08:14:20;3.20;;;1.98;;
68310;SDS011;55157;51.036;17.058;2023-08-07T08:16:45;3.72;;;1.75;;
68310;SDS011;55157;51.036;17.058;2023-08-07T08:19:10;3.70;;;1.77;;
68310;SDS011;55157;51.036;17.058;2023-08-07T08:21:35;8.93;;;2.40;;
68310;SDS011;55157;51.036;17.058;2023-08-07T08:24:01;3.97;;;2.08;;
68310;SDS011;55157;51.036;17.058;2023-08-07T08:26:26;4.38;;;2.45;;
68310;SDS011;55157;51.036;17.058;2023-08-07T08:28:51;4.18;;;2.50;;
68310;SDS011;55157;51.036;17.058;2023-08-07T08:31:18;4.53;;;2.30;;
68310;SDS011;55157;51.036;17.058;2023-08-07T08:33:43;4.93;;;2.50;;
68310;SDS011;55157;51.036;17.058;2023-08-07T08:36:08;5.18;;;3.30;;
68310;SDS011;55157;51.036;17.058;2023-08-07T08:38:33;5.28;;;2.45;;
68310;SDS011;55157;51.036;17.058;2023-08-07T08:40:59;4.10;;;2.08;;
68310;SDS011;55157;51.036;17.058;2023-08-07T08:43:27;5.18;;;2.25;;
68310;SDS011;55157;51.036;17.058;2023-08-07T08:45:53;3.80;;;2.17;;
68310;SDS011;55157;51.036;17.058;2023-08-07T08:48:19;2.92;;;1.77;;
68310;SDS011;55157;51.036;17.058;2023-08-07T08:50:45;5.97;;;2.42;;
68310;SDS011;55157;51.036;17.058;2023-08-07T08:53:10;10.07;;;2.30;;
68310;SDS011;55157;51.036;17.058;2023-08-07T08:55:36;3.88;;;2.40;;
68310;SDS011;55157;51.036;17.058;2023-08-07T08:58:01;7.65;;;2.08;;
68310;SDS011;55157;51.036;17.058;2023-08-07T09:00:26;5.10;;;2.97;;
68310;SDS011;55157;51.036;17.058;2023-08-07T09:02:52;5.30;;;2.50;;
68310;SDS011;55157;51.036;17.058;2023-08-07T09:05:19;4.22;;;1.90;;
68310;SDS011;55157;51.036;17.058;2023-08-07T09:07:44;5.05;;;3.22;;
68310;SDS011;55157;51.036;17.058;2023-08-07T09:10:09;10.63;;;2.47;;
68310;SDS011;55157;51.036;17.058;2023-08-07T09:12:35;3.85;;;2.08;;
68310;SDS011;55157;51.036;17.058;2023-08-07T09:15:02;3.55;;;2.15;;
68310;SDS011;55157;51.036;17.058;2023-08-07T09:17:28;3.60;;;2.15;;
68310;SDS011;55157;51.036;17.058;2023-08-07T09:19:53;9.52;;;2.15;;
68310;SDS011;55157;51.036;17.058;2023-08-07T09:22:20;3.70;;;2.08;;
68310;SDS011;55157;51.036;17.058;2023-08-07T09:24:45;5.20;;;2.13;;
68310;SDS011;55157;51.036;17.058;2023-08-07T09:27:11;6.68;;;2.20;;
68310;SDS011;55157;51.036;17.058;2023-08-07T09:29:36;4.88;;;2.00;;
68310;SDS011;55157;51.036;17.058;2023-08-07T09:32:06;4.85;;;2.30;;
68310;SDS011;55157;51.036;17.058;2023-08-07T09:34:31;4.50;;;2.20;;
68310;SDS011;55157;51.036;17.058;2023-08-07T09:36:56;5.50;;;2.30;;
68310;SDS011;55157;51.036;17.058;2023-08-07T09:39:24;3.45;;;2.13;;
68310;SDS011;55157;51.036;17.058;2023-08-07T09:41:50;4.13;;;2.15;;
68310;SDS011;55157;51.036;17.058;2023-08-07T09:44:15;3.15;;;2.08;;
68310;SDS011;55157;51.036;17.058;2023-08-07T09:46:41;3.55;;;1.98;;
68310;SDS011;55157;51.036;17.058;2023-08-07T09:49:06;3.55;;;1.92;;
68310;SDS011;55157;51.036;17.058;2023-08-07T09:51:35;10.18;;;1.77;;
68310;SDS011;55157;51.036;17.058;2023-08-07T09:54:05;6.07;;;1.88;;
68310;SDS011;55157;51.036;17.058;2023-08-07T09:56:32;2.58;;;1.85;;
68310;SDS011;55157;51.036;17.058;2023-08-07T09:58:57;7.35;;;1.67;;
68310;SDS011;55157;51.036;17.058;2023-08-07T10:01:22;7.55;;;1.90;;
68310;SDS011;55157;51.036;17.058;2023-08-07T10:03:48;2.80;;;1.23;;
68310;SDS011;55157;51.036;17.058;2023-08-07T10:06:13;7.30;;;1.55;;
68310;SDS011;55157;51.036;17.058;2023-08-07T10:08:39;1.73;;;1.30;;
68310;SDS011;55157;51.036;17.058;2023-08-07T10:11:04;4.13;;;1.30;;
68310;SDS011;55157;51.036;17.058;2023-08-07T10:13:31;2.65;;;1.30;;
68310;SDS011;55157;51.036;17.058;2023-08-07T10:15:57;2.35;;;1.30;;
68310;SDS011;55157;51.036;17.058;2023-08-07T10:18:23;2.38;;;1.35;;
68310;SDS011;55157;51.036;17.058;2023-08-07T10:20:48;3.30;;;1.55;;
68310;SDS011;55157;51.036;17.058;2023-08-07T10:23:13;2.90;;;1.40;;
68310;SDS011;55157;51.036;17.058;2023-08-07T10:25:40;3.10;;;1.42;;
68310;SDS011;55157;51.036;17.058;2023-08-07T10:28:07;8.40;;;2.03;;
68310;SDS011;55157;51.036;17.058;2023-08-07T10:30:34;3.75;;;1.30;;
68310;SDS011;55157;51.036;17.058;2023-08-07T10:33:00;2.50;;;1.23;;
68310;SDS011;55157;51.036;17.058;2023-08-07T10:35:29;11.13;;;1.85;;
68310;SDS011;55157;51.036;17.058;2023-08-07T10:37:55;8.30;;;1.42;;
68310;SDS011;55157;51.036;17.058;2023-08-07T10:40:29;9.43;;;2.13;;
68310;SDS011;55157;51.036;17.058;2023-08-07T10:42:58;4.70;;;1.30;;
68310;SDS011;55157;51.036;17.058;2023-08-07T10:45:24;1.95;;;1.58;;
68310;SDS011;55157;51.036;17.058;2023-08-07T10:48:04;4.30;;;1.23;;
68310;SDS011;55157;51.036;17.058;2023-08-07T10:50:30;6.10;;;1.67;;
68310;SDS011;55157;51.036;17.058;2023-08-07T10:52:56;12.23;;;1.33;;
68310;SDS011;55157;51.036;17.058;2023-08-07T10:55:21;7.07;;;1.33;;
68310;SDS011;55157;51.036;17.058;2023-08-07T10:57:46;3.55;;;1.33;;
68310;SDS011;55157;51.036;17.058;2023-08-07T11:00:12;2.38;;;1.67;;
68310;SDS011;55157;51.036;17.058;2023-08-07T11:02:37;5.00;;;1.40;;
68310;SDS011;55157;51.036;17.058;2023-08-07T11:05:05;3.37;;;1.10;;
68310;SDS011;55157;51.036;17.058;2023-08-07T11:07:30;1.88;;;1.15;;
68310;SDS011;55157;51.036;17.058;2023-08-07T11:09:56;1.00;;;0.80;;
68310;SDS011;55157;51.036;17.058;2023-08-07T11:12:24;2.47;;;1.38;;
68310;SDS011;55157;51.036;17.058;2023-08-07T11:14:49;3.25;;;0.90;;
68310;SDS011;55157;51.036;17.058;2023-08-07T11:17:14;4.83;;;1.03;;
68310;SDS011;55157;51.036;17.058;2023-08-07T11:19:41;4.95;;;1.73;;
68310;SDS011;55157;51.036;17.058;2023-08-07T11:22:08;1.98;;;1.30;;
68310;SDS011;55157;51.036;17.058;2023-08-07T11:24:33;4.88;;;1.30;;
68310;SDS011;55157;51.036;17.058;2023-08-07T11:26:58;1.50;;;1.03;;
68310;SDS011;55157;51.036;17.058;2023-08-07T11:29:24;2.53;;;1.20;;
68310;SDS011;55157;51.036;17.058;2023-08-07T11:31:49;1.40;;;1.02;;
68310;SDS011;55157;51.036;17.058;2023-08-07T11:34:15;2.40;;;1.23;;
68310;SDS011;55157;51.036;17.058;2023-08-07T11:36:42;2.55;;;1.52;;
68310;SDS011;55157;51.036;17.058;2023-08-07T11:39:08;6.20;;;1.75;;
68310;SDS011;55157;51.036;17.058;2023-08-07T11:41:34;3.58;;;1.20;;
68310;SDS011;55157;51.036;17.058;2023-08-07T11:43:59;7.47;;;1.33;;
68310;SDS011;55157;51.036;17.058;2023-08-07T11:46:24;2.20;;;1.15;;
68310;SDS011;55157;51.036;17.058;2023-08-07T11:48:49;2.22;;;1.52;;
68310;SDS011;55157;51.036;17.058;2023-08-07T11:51:16;4.85;;;1.42;;
68310;SDS011;55157;51.036;17.058;2023-08-07T11:53:42;3.53;;;1.30;;
68310;SDS011;55157;51.036;17.058;2023-08-07T11:56:09;4.78;;;1.40;;
68310;SDS011;55157;51.036;17.058;2023-08-07T11:58:34;2.42;;;1.20;;
68310;SDS011;55157;51.036;17.058;2023-08-07T12:01:03;2.97;;;1.45;;
68310;SDS011;55157;51.036;17.058;2023-08-07T12:03:29;6.72;;;1.40;;
68310;SDS011;55157;51.036;17.058;2023-08-07T12:05:55;5.03;;;1.73;;
68310;SDS011;55157;51.036;17.058;2023-08-07T12:08:20;6.32;;;1.42;;
68310;SDS011;55157;51.036;17.058;2023-08-07T12:10:48;4.93;;;1.30;;
68310;SDS011;55157;51.036;17.058;2023-08-07T12:13:15;2.47;;;1.40;;
68310;SDS011;55157;51.036;17.058;2023-08-07T12:15:41;4.80;;;1.40;;
68310;SDS011;55157;51.036;17.058;2023-08-07T12:18:07;6.47;;;1.77;;
68310;SDS011;55157;51.036;17.058;2023-08-07T12:20:32;2.92;;;1.50;;
68310;SDS011;55157;51.036;17.058;2023-08-07T12:22:57;1.60;;;1.10;;
68310;SDS011;55157;51.036;17.058;2023-08-07T12:25:23;2.20;;;1.25;;
68310;SDS011;55157;51.036;17.058;2023-08-07T12:27:48;2.83;;;1.30;;
68310;SDS011;55157;51.036;17.058;2023-08-07T12:30:15;2.53;;;1.52;;
68310;SDS011;55157;51.036;17.058;2023-08-07T12:32:40;9.32;;;1.50;;
68310;SDS011;55157;51.036;17.058;2023-08-07T12:35:06;3.92;;;1.50;;
68310;SDS011;55157;51.036;17.058;2023-08-07T12:37:31;3.05;;;1.33;;
68310;SDS011;55157;51.036;17.058;2023-08-07T12:39:56;5.07;;;1.77;;
68310;SDS011;55157;51.036;17.058;2023-08-07T12:42:22;2.37;;;1.13;;
68310;SDS011;55157;51.036;17.058;2023-08-07T12:44:47;2.58;;;1.70;;
68310;SDS011;55157;51.036;17.058;2023-08-07T12:47:14;1.83;;;1.27;;
68310;SDS011;55157;51.036;17.058;2023-08-07T12:49:39;7.00;;;1.40;;
68310;SDS011;55157;51.036;17.058;2023-08-07T12:52:04;3.00;;;1.40;;
68310;SDS011;55157;51.036;17.058;2023-08-07T12:54:30;3.78;;;1.65;;
68310;SDS011;55157;51.036;17.058;2023-08-07T12:56:55;2.05;;;1.25;;
68310;SDS011;55157;51.036;17.058;2023-08-07T12:59:20;3.33;;;1.48;;
68310;SDS011;55157;51.036;17.058;2023-08-07T13:01:45;5.63;;;1.00;;
68310;SDS011;55157;51.036;17.058;2023-08-07T13:04:12;4.20;;;1.60;;
68310;SDS011;55157;51.036;17.058;2023-08-07T13:06:37;3.03;;;1.42;;
68310;SDS011;55157;51.036;17.058;2023-08-07T13:09:02;2.85;;;1.10;;
68310;SDS011;55157;51.036;17.058;2023-08-07T13:11:28;2.92;;;1.42;;
68310;SDS011;55157;51.036;17.058;2023-08-07T13:13:53;3.00;;;1.30;;
68310;SDS011;55157;51.036;17.058;2023-08-07T13:16:18;7.03;;;1.80;;
68310;SDS011;55157;51.036;17.058;2023-08-07T13:18:43;3.70;;;1.83;;
68310;SDS011;55157;51.036;17.058;2023-08-07T13:21:10;5.18;;;1.75;;
68310;SDS011;55157;51.036;17.058;2023-08-07T13:23:35;6.45;;;2.00;;
68310;SDS011;55157;51.036;17.058;2023-08-07T13:26:00;4.25;;;1.42;;
68310;SDS011;55157;51.036;17.058;2023-08-07T13:28:26;2.95;;;1.50;;
68310;SDS011;55157;51.036;17.058;2023-08-07T13:30:51;3.08;;;1.50;;
68310;SDS011;55157;51.036;17.058;2023-08-07T13:33:16;3.25;;;1.60;;
68310;SDS011;55157;51.036;17.058;2023-08-07T13:35:41;2.85;;;1.52;;
68310;SDS011;55157;51.036;17.058;2023-08-07T13:38:09;2.45;;;1.50;;
68310;SDS011;55157;51.036;17.058;2023-08-07T13:40:34;6.07;;;1.40;;
68310;SDS011;55157;51.036;17.058;2023-08-07T13:42:59;1.77;;;1.38;;
68310;SDS011;55157;51.036;17.058;2023-08-07T13:45:24;2.28;;;1.30;;
68310;SDS011;55157;51.036;17.058;2023-08-07T13:47:50;2.42;;;1.30;;
68310;SDS011;55157;51.036;17.058;2023-08-07T13:50:15;2.42;;;1.63;;
68310;SDS011;55157;51.036;17.058;2023-08-07T13:52:40;4.35;;;1.67;;
68310;SDS011;55157;51.036;17.058;2023-08-07T13:55:07;3.30;;;1.75;;
68310;SDS011;55157;51.036;17.058;2023-08-07T13:57:33;3.28;;;1.15;;
68310;SDS011;55157;51.036;17.058;2023-08-07T13:59:58;2.00;;;1.40;;
68310;SDS011;55157;51.036;17.058;2023-08-07T14:02:23;3.53;;;1.60;;
68310;SDS011;55157;51.036;17.058;2023-08-07T14:04:48;2.28;;;1.48;;
68310;SDS011;55157;51.036;17.058;2023-08-07T14:07:14;1.85;;;1.23;;
68310;SDS011;55157;51.036;17.058;2023-08-07T14:09:39;2.25;;;1.30;;
68310;SDS011;55157;51.036;17.058;2023-08-07T14:12:06;3.45;;;1.60;;
68310;SDS011;55157;51.036;17.058;2023-08-07T14:14:32;2.53;;;1.27;;
68310;SDS011;55157;51.036;17.058;2023-08-07T14:16:57;2.65;;;1.10;;
68310;SDS011;55157;51.036;17.058;2023-08-07T14:19:22;1.83;;;1.33;;
68310;SDS011;55157;51.036;17.058;2023-08-07T14:21:48;4.40;;;1.30;;
68310;SDS011;55157;51.036;17.058;2023-08-07T14:24:13;4.05;;;1.10;;
68310;SDS011;55157;51.036;17.058;2023-08-07T14:26:38;1.63;;;0.80;;
68310;SDS011;55157;51.036;17.058;2023-08-07T14:29:05;3.42;;;1.65;;